Time;durP1;ratioP1;P1;durP2;ratioP2;P2;SDS_P1;SDS_P2;PMS_P1;PMS_P2;Temp;Humidity;BMP_temperature;BMP_pressure;BME280_temperature;BME280_humidity;BME280_pressure;Samples;Min_cycle;Max_cycle;Signal;HPM_P1;HPM_P2
2022/10/28 00:00:51;;;;;;;1.43;0.90;;;20.80;99.90;;;20.70;57.50;101510.50;4917423;28;97191;-41
2022/10/28 00:03:18;;;;;;;0.63;0.63;;;20.80;99.90;;;20.76;57.49;101504.75;4925473;28;97443;-46
2022/10/28 00:05:44;;;;;;;0.70;0.70;;;20.80;99.90;;;20.74;57.50;101503.97;4917642;28;98338;-44
2022/10/28 00:08:10;;;;;;;3.23;0.80;;;20.90;99.90;;;20.77;57.43;101506.47;4925727;28;97783;-46
2022/10/28 00:10:36;;;;;;;1.30;0.83;;;20.90;99.90;;;20.74;57.44;101493.25;4924350;28;110703;-43
2022/10/28 00:13:02;;;;;;;0.97;0.70;;;20.90;99.90;;;20.73;57.26;101488.88;4933553;28;97577;-44
2022/10/28 00:15:28;;;;;;;1.07;0.87;;;20.90;99.90;;;20.76;57.30;101499.38;4931231;28;97574;-44
2022/10/28 00:17:53;;;;;;;0.80;0.63;;;20.90;99.90;;;20.74;57.32;101498.63;4925113;28;97576;-42
2022/10/28 00:20:19;;;;;;;0.77;0.53;;;20.90;99.90;;;20.74;57.49;101487.91;4923256;28;105675;-45
2022/10/28 00:22:45;;;;;;;1.23;0.73;;;20.90;99.90;;;20.74;57.44;101490.59;4905124;28;97122;-44
2022/10/28 00:25:11;;;;;;;0.90;0.87;;;20.90;99.90;;;20.69;57.65;101482.00;4909465;28;97173;-41
2022/10/28 00:27:37;;;;;;;2.20;0.83;;;20.80;99.90;;;20.74;57.34;101485.22;4897289;28;104740;-42
2022/10/28 00:30:04;;;;;;;2.10;1.00;;;20.90;99.90;;;20.74;57.45;101487.91;4923376;28;97075;-45
2022/10/28 00:32:30;;;;;;;0.83;0.70;;;20.90;99.90;;;20.78;57.20;101486.72;4925656;28;97360;-42
2022/10/28 00:34:57;;;;;;;0.47;0.47;;;20.90;99.90;;;20.73;57.50;101479.00;4928064;28;96899;-41
2022/10/28 00:37:23;;;;;;;1.30;0.90;;;20.90;99.90;;;20.74;57.45;101490.59;4931603;28;98289;-44
2022/10/28 00:39:49;;;;;;;1.63;1.07;;;20.90;99.90;;;20.71;57.28;101485.44;4919969;28;104386;-42
2022/10/28 00:42:21;;;;;;;1.27;0.63;;;20.90;99.90;;;20.77;57.27;101476.97;4930574;28;97258;-43
2022/10/28 00:45:02;;;;;;;1.83;1.00;;;20.90;99.90;;;20.79;57.13;101469.69;4919258;28;98260;-46
2022/10/28 00:47:55;;;;;;;0.83;0.73;;;20.90;99.90;;;20.77;57.12;101463.56;4917186;28;97081;-42
2022/10/28 00:50:46;;;;;;;1.50;0.90;;;20.90;99.90;;;20.72;57.33;101465.69;4945217;28;98254;-45
2022/10/28 00:53:18;;;;;;;0.70;0.60;;;20.90;99.90;;;20.73;57.40;101459.38;4936277;28;96903;-42
2022/10/28 00:55:45;;;;;;;1.20;0.80;;;20.80;99.90;;;20.73;57.23;101456.69;4920253;28;101193;-43
2022/10/28 00:58:12;;;;;;;5.20;1.30;;;20.80;99.90;;;20.72;57.32;101454.97;4925482;28;97736;-41
2022/10/28 01:00:38;;;;;;;1.17;0.70;;;20.80;99.90;;;20.76;57.41;101461.84;4916275;28;97032;-45
2022/10/28 01:03:03;;;;;;;0.70;0.70;;;20.80;99.90;;;20.74;57.37;101459.28;4927101;28;97401;-41
2022/10/28 01:05:32;;;;;;;0.57;0.47;;;20.80;99.90;;;20.77;57.23;101463.56;4922358;28;97216;-48
2022/10/28 01:08:03;;;;;;;0.77;0.70;;;20.80;99.90;;;20.79;57.63;101477.72;4925889;28;97004;-49
2022/10/28 01:10:57;;;;;;;1.10;0.43;;;20.80;99.90;;;20.78;57.04;101471.50;4926008;28;96782;-46
2022/10/28 01:14:11;;;;;;;0.87;0.70;;;20.80;99.90;;;20.79;57.08;101477.72;4923314;28;97518;-47
2022/10/28 01:16:54;;;;;;;1.33;0.77;;;20.80;99.90;;;20.71;57.36;101480.06;4916403;28;97103;-47
2022/10/28 01:19:57;;;;;;;0.90;0.83;;;20.80;99.90;;;20.72;57.38;101471.06;4932306;28;97347;-49
2022/10/28 01:22:28;;;;;;;0.80;0.73;;;20.80;99.90;;;20.70;57.51;101462.25;4926969;28;99695;-47
2022/10/28 01:25:14;;;;;;;1.73;0.77;;;20.80;99.90;;;20.72;57.39;101465.69;4904782;28;96855;-49
2022/10/28 01:28:18;;;;;;;0.87;0.70;;;20.80;99.90;;;20.73;57.34;101462.06;4900980;28;97235;-46
2022/10/28 01:31:21;;;;;;;0.50;0.50;;;20.80;99.90;;;20.69;57.43;101457.88;4909142;28;97624;-50
2022/10/28 01:34:37;;;;;;;2.13;0.40;;;20.80;99.90;;;20.67;57.50;101447.22;4902703;28;98885;-49
2022/10/28 01:37:46;;;;;;;0.63;0.63;;;20.80;99.90;;;20.62;57.56;101437.75;4919511;28;97266;-49
2022/10/28 01:41:08;;;;;;;0.80;0.80;;;20.80;99.90;;;20.68;57.70;101448.06;4907036;28;97068;-49
2022/10/28 01:43:56;;;;;;;1.33;0.90;;;20.80;99.90;;;20.72;57.34;101455.84;4890353;28;103414;-46
2022/10/28 01:46:30;;;;;;;1.10;0.83;;;20.80;99.90;;;20.70;57.55;101446.19;4941274;28;98484;-46
2022/10/28 01:49:12;;;;;;;0.57;0.57;;;20.80;99.90;;;20.69;57.46;101444.47;4905638;28;97289;-45
2022/10/28 01:51:54;;;;;;;0.80;0.73;;;20.80;99.90;;;20.72;57.46;101446.94;4920690;28;97350;-46
2022/10/28 01:54:24;;;;;;;1.50;0.93;;;20.80;99.90;;;20.76;57.30;101451.97;4936375;28;98804;-43
2022/10/28 01:56:51;;;;;;;1.10;0.80;;;20.80;99.90;;;20.79;57.17;101453.59;4904928;28;102263;-47
2022/10/28 01:59:24;;;;;;;1.13;0.90;;;20.80;99.90;;;20.77;57.13;101453.69;4903718;28;97004;-43
2022/10/28 02:01:50;;;;;;;2.07;1.00;;;20.80;99.90;;;20.80;57.46;101458.00;4914762;28;97458;-45
2022/10/28 02:04:15;;;;;;;1.10;0.80;;;20.80;99.90;;;20.79;58.15;101456.28;4922446;28;97591;-47
2022/10/28 02:06:45;;;;;;;1.13;0.97;;;20.80;99.90;;;20.78;57.33;101466.13;4928848;28;97109;-45
2022/10/28 02:09:28;;;;;;;0.80;0.50;;;20.80;99.90;;;20.78;58.15;101466.13;4931642;28;97100;-47
2022/10/28 02:12:17;;;;;;;0.83;0.50;;;20.70;99.90;;;20.76;57.30;101451.97;4929886;28;97164;-48
2022/10/28 02:14:55;;;;;;;1.33;0.90;;;20.70;99.90;;;20.75;57.29;101458.31;4919686;28;97591;-45
2022/10/28 02:17:36;;;;;;;1.40;0.60;;;20.70;99.90;;;20.74;57.27;101445.00;4932484;28;97662;-46
2022/10/28 02:20:32;;;;;;;0.60;0.40;;;20.70;99.90;;;20.75;56.97;101449.41;4919924;28;97398;-44
2022/10/28 02:23:20;;;;;;;2.40;1.03;;;20.80;99.90;;;20.77;57.04;101442.13;4912191;28;97318;-45
2022/10/28 02:25:54;;;;;;;1.30;1.20;;;20.80;99.90;;;20.75;57.11;101439.53;4902642;28;97656;-48
2022/10/28 02:28:57;;;;;;;2.23;0.80;;;20.80;99.90;;;20.77;57.22;101442.13;4910932;28;97577;-47
2022/10/28 02:31:33;;;;;;;1.03;0.47;;;20.80;99.90;;;20.76;57.03;101440.41;4931499;28;97212;-48
2022/10/28 02:34:10;;;;;;;0.90;0.60;;;20.80;99.90;;;20.77;57.10;101442.13;4920533;28;97419;-48
2022/10/28 02:36:41;;;;;;;0.63;0.50;;;20.80;99.90;;;20.77;56.97;101444.78;4930980;28;97166;-44
2022/10/28 02:39:07;;;;;;;0.90;0.70;;;20.80;99.90;;;20.78;56.92;101443.84;4936680;28;96750;-46
2022/10/28 02:42:12;;;;;;;0.70;0.57;;;20.80;99.90;;;20.76;58.29;101448.44;4926458;28;96844;-47
2022/10/28 02:44:46;;;;;;;1.20;1.10;;;20.80;99.90;;;20.70;58.73;101446.19;4934283;28;97150;-44
2022/10/28 02:47:19;;;;;;;1.07;0.67;;;20.70;99.90;;;20.68;58.63;101442.72;4934691;28;98053;-46
2022/10/28 02:49:52;;;;;;;0.40;0.40;;;20.60;99.90;;;20.66;57.99;101439.28;4931430;28;97714;-42
2022/10/28 02:52:20;;;;;;;2.67;0.80;;;20.60;99.90;;;20.64;58.62;101441.19;4933481;28;97213;-44
2022/10/28 02:54:59;;;;;;;0.70;0.70;;;20.50;99.90;;;20.58;58.91;101439.78;4923434;28;106549;-46
2022/10/28 02:57:36;;;;;;;0.83;0.63;;;20.40;99.90;;;20.55;59.10;101441.81;4928396;28;97838;-44
2022/10/28 03:00:10;;;;;;;1.23;0.37;;;20.40;99.90;;;20.56;57.95;101431.00;4926131;28;97043;-47
2022/10/28 03:02:36;;;;;;;1.93;0.93;;;20.40;99.90;;;20.56;58.02;101430.13;4918713;28;97137;-45
2022/10/28 03:05:04;;;;;;;0.73;0.50;;;20.50;99.90;;;20.59;57.79;101421.88;4928050;28;96890;-49
2022/10/28 03:07:30;;;;;;;1.40;0.40;;;20.50;99.90;;;20.58;57.78;101430.88;4929767;28;97013;-42
2022/10/28 03:09:56;;;;;;;2.20;0.77;;;20.50;99.90;;;20.61;57.73;101426.19;4933652;28;100500;-44
2022/10/28 03:12:21;;;;;;;0.73;0.40;;;20.60;99.90;;;20.63;57.44;101413.53;4936562;28;97509;-44
2022/10/28 03:14:47;;;;;;;0.60;0.60;;;20.60;99.90;;;20.66;57.21;101424.06;4925284;28;96988;-47
2022/10/28 03:17:13;;;;;;;2.97;0.50;;;20.70;99.90;;;20.66;57.30;101428.56;4934276;28;121209;-47
2022/10/28 03:19:39;;;;;;;2.80;0.63;;;20.60;99.90;;;20.67;57.84;101435.63;4924079;28;97393;-50
2022/10/28 03:22:04;;;;;;;1.10;0.77;;;20.60;99.90;;;20.64;57.81;101430.47;4920848;28;110265;-47
2022/10/28 03:24:30;;;;;;;5.00;0.70;;;20.60;99.90;;;20.62;57.95;101432.41;4935125;28;96736;-44
2022/10/28 03:26:56;;;;;;;0.50;0.40;;;20.50;99.90;;;20.58;58.02;101433.56;4923417;28;108976;-45
2022/10/28 03:29:22;;;;;;;0.37;0.37;;;20.50;99.90;;;20.59;57.67;101432.59;4925655;28;106738;-47
2022/10/28 03:31:48;;;;;;;0.97;0.70;;;20.50;99.90;;;20.59;58.02;101427.25;4934658;28;97247;-49
2022/10/28 03:34:13;;;;;;;0.77;0.50;;;20.50;99.90;;;20.58;57.52;101425.53;4921385;28;111437;-43
2022/10/28 03:36:39;;;;;;;1.30;0.50;;;20.50;99.90;;;20.61;57.54;101423.50;4916218;28;96758;-46
2022/10/28 03:39:05;;;;;;;0.73;0.70;;;20.60;99.90;;;20.60;57.58;101420.94;4927495;28;119767;-44
2022/10/28 03:41:31;;;;;;;0.60;0.40;;;20.60;99.90;;;20.60;57.84;101429.81;4923396;28;102054;-47
2022/10/28 03:43:59;;;;;;;3.40;0.77;;;20.50;99.90;;;20.55;58.44;101431.09;4926875;28;96749;-44
2022/10/28 03:46:25;;;;;;;3.90;0.73;;;20.50;99.90;;;20.56;57.66;101425.63;4916732;28;108355;-44
2022/10/28 03:48:51;;;;;;;1.97;0.60;;;20.50;99.90;;;20.58;57.68;101425.53;4929722;28;113165;-51
2022/10/28 03:51:17;;;;;;;1.33;0.70;;;20.50;99.90;;;20.59;57.62;101413.84;4929653;28;97274;-46
2022/10/28 03:53:43;;;;;;;0.53;0.50;;;20.50;99.90;;;20.56;58.06;101417.59;4925938;28;97591;-43
2022/10/28 03:56:10;;;;;;;2.10;0.90;;;20.50;99.90;;;20.56;58.09;101414.91;4926366;28;97537;-48
2022/10/28 03:58:36;;;;;;;0.50;0.47;;;20.50;99.90;;;20.54;57.81;101406.09;4923791;28;98246;-49
2022/10/28 04:01:01;;;;;;;1.20;0.63;;;20.40;99.90;;;20.53;57.51;101400.81;4920973;28;97513;-46
2022/10/28 04:03:27;;;;;;;0.27;0.27;;;20.50;99.90;;;20.54;57.61;101394.50;4928991;28;98397;-46
2022/10/28 04:05:53;;;;;;;0.67;0.50;;;20.60;99.90;;;20.57;57.62;101395.19;4927086;28;110186;-42
2022/10/28 04:08:20;;;;;;;1.07;0.70;;;20.60;99.90;;;20.59;57.60;101395.94;4924852;28;97100;-46
2022/10/28 04:10:47;;;;;;;0.37;0.30;;;20.60;99.90;;;20.60;57.58;101388.75;4915901;28;97362;-50
2022/10/28 04:13:14;;;;;;;0.83;0.50;;;20.70;99.90;;;20.61;57.47;101383.28;4920715;28;97512;-48
2022/10/28 04:15:40;;;;;;;2.00;0.40;;;20.70;99.90;;;20.61;57.27;101377.94;4925047;28;97631;-46
2022/10/28 04:18:06;;;;;;;1.10;0.60;;;20.70;99.90;;;20.61;57.41;101379.75;4921732;28;96996;-45
2022/10/28 04:20:32;;;;;;;1.57;0.80;;;20.70;99.90;;;20.61;57.42;101383.28;4920899;28;111497;-51
2022/10/28 04:22:59;;;;;;;1.03;0.60;;;20.70;99.90;;;20.66;57.33;101385.66;4927023;28;98837;-45
2022/10/28 04:25:26;;;;;;;0.97;0.63;;;20.70;99.90;;;20.66;57.46;101396.38;4928078;28;100294;-48
2022/10/28 04:27:53;;;;;;;0.77;0.47;;;20.70;99.90;;;20.66;57.22;101391.03;4922618;28;97125;-48
2022/10/28 04:30:19;;;;;;;0.90;0.40;;;20.80;99.90;;;20.65;57.26;101394.66;4934092;28;96624;-44
2022/10/28 04:32:45;;;;;;;1.30;0.87;;;20.80;99.90;;;20.68;57.04;101399.81;4923500;28;96925;-43
2022/10/28 04:35:12;;;;;;;2.10;0.53;;;20.80;99.90;;;20.69;57.17;101404.25;4923011;28;118958;-44
2022/10/28 04:37:39;;;;;;;0.97;0.70;;;20.80;99.90;;;20.70;57.12;101400.59;4925510;28;97334;-45
2022/10/28 04:40:07;;;;;;;0.80;0.47;;;20.80;99.90;;;20.68;57.29;101405.19;4925647;28;100668;-46
2022/10/28 04:42:33;;;;;;;1.67;0.70;;;20.80;99.90;;;20.69;57.25;101401.56;4925237;28;97534;-46
2022/10/28 04:44:59;;;;;;;0.53;0.53;;;20.80;99.90;;;20.69;57.12;101405.09;4929368;28;97365;-51
2022/10/28 04:47:24;;;;;;;1.17;0.80;;;20.80;99.90;;;20.68;57.15;101402.50;4930617;28;107669;-55
2022/10/28 04:49:50;;;;;;;0.43;0.40;;;20.80;99.90;;;20.64;57.33;101401.00;4930196;28;108735;-47
2022/10/28 04:52:16;;;;;;;2.10;0.50;;;20.80;99.90;;;20.64;57.28;101392.94;4923049;28;96787;-47
2022/10/28 04:54:42;;;;;;;1.37;0.63;;;20.80;99.90;;;20.69;57.16;101402.44;4898115;28;107123;-49
2022/10/28 04:57:08;;;;;;;0.50;0.50;;;20.80;99.90;;;20.70;57.17;101392.56;4901528;28;117862;-46
2022/10/28 04:59:34;;;;;;;1.20;0.70;;;20.80;99.90;;;20.70;57.10;101397.91;4904821;28;97168;-45
2022/10/28 05:01:59;;;;;;;1.97;0.50;;;20.80;99.90;;;20.71;56.92;101394.28;4902578;28;100284;-44
2022/10/28 05:04:25;;;;;;;0.90;0.70;;;20.80;99.90;;;20.71;57.16;101399.63;4901683;28;112089;-48
2022/10/28 05:06:51;;;;;;;1.00;0.80;;;20.80;99.90;;;20.70;57.16;101405.97;4910922;28;97228;-44
2022/10/28 05:09:17;;;;;;;4.23;1.00;;;20.80;99.90;;;20.65;57.22;101408.06;4912121;28;97132;-46
2022/10/28 05:11:42;;;;;;;1.23;0.40;;;20.80;99.90;;;20.66;57.31;101407.09;4902704;28;100652;-48
2022/10/28 05:14:08;;;;;;;0.50;0.37;;;20.80;99.90;;;20.63;57.25;101401.94;4896887;28;98681;-46
2022/10/28 05:16:34;;;;;;;1.53;0.63;;;20.80;99.90;;;20.64;57.33;101399.16;4909053;28;100661;-43
2022/10/28 05:19:00;;;;;;;1.07;0.57;;;20.80;99.90;;;20.68;57.20;101415.91;4925721;28;96875;-47
2022/10/28 05:21:26;;;;;;;0.87;0.60;;;20.80;99.90;;;20.69;57.06;101406.94;4921258;28;97613;-47
2022/10/28 05:23:51;;;;;;;2.93;0.93;;;20.80;99.90;;;20.70;56.90;101404.16;4903966;28;97568;-43
2022/10/28 05:26:17;;;;;;;1.10;0.53;;;20.80;99.90;;;20.72;56.85;101401.34;4895711;28;110242;-46
2022/10/28 05:28:43;;;;;;;0.73;0.53;;;20.80;99.90;;;20.70;57.01;101400.59;4906577;28;97095;-42
2022/10/28 05:31:09;;;;;;;2.40;1.10;;;20.80;99.90;;;20.70;57.12;101406.81;4912951;28;99210;-44
2022/10/28 05:33:35;;;;;;;0.60;0.37;;;20.80;99.90;;;20.71;56.85;101402.31;4899495;28;98356;-50
2022/10/28 05:36:01;;;;;;;2.23;0.47;;;20.80;99.90;;;20.74;56.92;101394.06;4922410;28;116119;-46
2022/10/28 05:38:27;;;;;;;1.13;0.90;;;20.80;99.90;;;20.74;56.87;101410.16;4927951;28;97476;-48
2022/10/28 05:40:53;;;;;;;1.13;0.80;;;20.80;99.90;;;20.74;56.90;101404.78;4934114;28;97042;-44
2022/10/28 05:43:19;;;;;;;0.83;0.60;;;20.80;99.90;;;20.72;56.80;101406.72;4928259;28;97354;-44
2022/10/28 05:45:52;;;;;;;0.60;0.50;;;20.80;99.90;;;20.76;56.83;101413.59;4927048;28;111431;-42
2022/10/28 05:48:18;;;;;;;0.30;0.30;;;20.80;99.90;;;20.73;56.86;101417.34;4934680;28;97161;-48
2022/10/28 05:50:44;;;;;;;0.83;0.63;;;20.80;99.90;;;20.73;56.78;101413.78;4925008;28;102243;-45
2022/10/28 05:53:10;;;;;;;1.47;0.63;;;20.80;99.90;;;20.74;56.68;101420.88;4932487;28;102932;-44
2022/10/28 05:55:35;;;;;;;0.80;0.57;;;20.70;99.90;;;20.71;56.89;101415.72;4936704;28;97671;-47
2022/10/28 05:58:02;;;;;;;0.70;0.33;;;20.70;99.90;;;20.71;56.96;101415.72;4909321;28;99882;-45
2022/10/28 06:00:28;;;;;;;0.53;0.40;;;20.70;99.90;;;20.69;56.93;101418.50;4909864;28;97456;-47
2022/10/28 06:03:08;;;;;;;1.60;0.40;;;20.60;99.90;;;20.69;56.88;101409.59;4908727;28;97693;-47
2022/10/28 06:05:41;;;;;;;1.93;0.70;;;20.60;99.90;;;20.63;57.51;101410.00;4906572;28;98354;-47
2022/10/28 06:08:07;;;;;;;0.83;0.77;;;20.60;99.90;;;20.58;57.44;101414.81;4911708;28;97319;-46
2022/10/28 06:10:33;;;;;;;0.73;0.60;;;20.50;99.90;;;20.57;57.24;101418.44;4914069;28;97031;-48
2022/10/28 06:12:59;;;;;;;1.70;0.83;;;20.50;99.90;;;20.50;57.83;101424.19;4913591;28;97129;-50
2022/10/28 06:15:25;;;;;;;1.00;0.50;;;20.30;99.90;;;20.47;57.94;101419.03;4904014;28;97386;-51
2022/10/28 06:17:50;;;;;;;0.60;0.60;;;20.30;99.90;;;20.39;58.42;101432.03;4908811;28;110338;-45
2022/10/28 06:20:18;;;;;;;1.43;1.03;;;20.20;99.90;;;20.38;58.42;101422.28;4912790;28;97128;-46
2022/10/28 06:22:52;;;;;;;1.53;0.70;;;20.20;99.90;;;20.39;58.20;101426.66;4906293;28;97436;-43
2022/10/28 06:25:20;;;;;;;0.83;0.70;;;20.20;99.90;;;20.38;58.37;101416.91;4906821;28;98428;-45
2022/10/28 06:27:54;;;;;;;3.73;0.63;;;20.20;99.90;;;20.40;57.92;101427.56;4905257;28;97664;-44
2022/10/28 06:30:20;;;;;;;0.90;0.60;;;20.20;99.90;;;20.40;58.23;101428.41;4907401;28;102407;-48
2022/10/28 06:32:45;;;;;;;3.10;1.23;;;20.30;99.90;;;20.41;58.22;101424.81;4927719;28;97837;-49
2022/10/28 06:35:11;;;;;;;0.83;0.70;;;20.30;99.90;;;20.45;58.02;101436.19;4931358;28;116272;-50
2022/10/28 06:37:37;;;;;;;0.50;0.50;;;20.30;99.90;;;20.45;58.00;101437.03;4924142;28;97157;-45
2022/10/28 06:40:03;;;;;;;0.97;0.60;;;20.40;99.90;;;20.47;57.73;101432.44;4934080;28;96969;-49
2022/10/28 06:42:29;;;;;;;0.43;0.30;;;20.40;99.90;;;20.49;57.81;101427.84;4930842;28;102455;-46
2022/10/28 06:44:55;;;;;;;1.17;0.87;;;20.40;99.90;;;20.50;57.91;101431.38;4903075;28;97468;-45
2022/10/28 06:47:21;;;;;;;1.03;0.83;;;20.50;99.90;;;20.48;57.66;101435.97;4903189;28;98526;-45
2022/10/28 06:49:46;;;;;;;1.00;0.60;;;20.40;99.90;;;20.47;57.73;101429.75;4911163;28;108878;-51
2022/10/28 06:52:12;;;;;;;1.90;0.90;;;20.40;99.90;;;20.47;58.09;101440.47;4938688;28;99782;-48
2022/10/28 06:54:38;;;;;;;0.50;0.50;;;20.40;99.90;;;20.48;57.76;101436.84;4919093;28;97255;-49
2022/10/28 06:57:04;;;;;;;1.03;0.40;;;20.40;99.90;;;20.52;57.56;101440.16;4922502;28;97142;-48
2022/10/28 06:59:30;;;;;;;0.87;0.63;;;20.40;99.90;;;20.53;57.59;101438.34;4914459;28;97230;-50
2022/10/28 07:01:55;;;;;;;0.67;0.67;;;20.50;99.90;;;20.50;57.67;101442.94;4931219;28;110115;-49
2022/10/28 07:04:21;;;;;;;1.23;0.50;;;20.50;99.90;;;20.48;57.68;101434.16;4934881;28;97172;-46
2022/10/28 07:06:47;;;;;;;0.40;0.40;;;20.60;99.90;;;20.55;57.50;101436.47;4920332;28;97116;-51
2022/10/28 07:09:13;;;;;;;1.67;0.43;;;20.60;99.90;;;20.58;57.32;101437.13;4927156;28;106073;-47
2022/10/28 07:11:43;;;;;;;1.23;0.40;;;20.60;99.90;;;20.61;57.38;101441.41;4908023;28;99792;-43
2022/10/28 07:14:09;;;;;;;0.33;0.30;;;20.70;99.90;;;20.60;57.48;101434.31;4903646;28;96945;-50
2022/10/28 07:16:35;;;;;;;1.23;0.60;;;20.70;99.90;;;20.60;57.26;101442.38;4910226;28;97238;-48
2022/10/28 07:19:01;;;;;;;0.43;0.40;;;20.70;99.90;;;20.65;57.10;101448.28;4911156;28;105191;-46
2022/10/28 07:21:28;;;;;;;0.97;0.53;;;20.70;99.90;;;20.67;57.08;101451.72;4907441;28;99445;-49
2022/10/28 07:23:57;;;;;;;0.60;0.40;;;20.80;99.90;;;20.68;56.81;101451.59;4912921;28;98040;-46
2022/10/28 07:26:23;;;;;;;2.57;0.90;;;20.80;99.90;;;20.70;57.05;101451.53;4908426;28;110947;-44
2022/10/28 07:28:49;;;;;;;0.50;0.33;;;20.80;99.90;;;20.65;57.15;101448.28;4889461;28;97473;-45
2022/10/28 07:31:16;;;;;;;1.03;0.57;;;20.80;99.90;;;20.62;57.22;101448.47;4912849;28;97566;-42
2022/10/28 07:33:42;;;;;;;1.00;0.70;;;20.80;99.90;;;20.68;56.94;101458.78;4909926;28;98797;-44
2022/10/28 07:36:08;;;;;;;4.67;1.00;;;20.80;99.90;;;20.66;56.78;101450.00;4916557;28;97363;-50
2022/10/28 07:38:35;;;;;;;1.67;0.57;;;20.80;99.90;;;20.65;56.96;101453.63;4910763;28;96893;-45
2022/10/28 07:41:08;;;;;;;0.80;0.60;;;20.80;99.90;;;20.65;56.99;101453.63;4908133;28;117949;-43
2022/10/28 07:43:38;;;;;;;2.23;0.70;;;20.80;99.90;;;20.69;56.84;101444.47;4906704;28;97375;-45
2022/10/28 07:46:06;;;;;;;0.80;0.50;;;20.80;99.90;;;20.68;56.92;101448.06;4907952;28;97774;-46
2022/10/28 07:48:33;;;;;;;0.80;0.47;;;20.80;99.90;;;20.66;56.90;101450.84;4907613;28;97477;-45
2022/10/28 07:51:04;;;;;;;0.33;0.27;;;20.80;99.90;;;20.65;56.95;101449.13;4911412;28;97161;-44
2022/10/28 07:53:30;;;;;;;0.83;0.63;;;20.80;99.90;;;20.67;57.00;101470.47;4904745;28;97685;-45
2022/10/28 07:56:08;;;;;;;2.07;0.63;;;20.70;99.90;;;20.71;56.89;101469.34;4904118;28;96903;-44
2022/10/28 07:58:35;;;;;;;0.80;0.60;;;20.80;99.90;;;20.65;56.95;101464.34;4907564;28;97581;-44
2022/10/28 08:01:07;;;;;;;1.00;0.67;;;20.80;99.90;;;20.66;57.05;101471.44;4906407;28;97628;-44
2022/10/28 08:03:33;;;;;;;2.07;0.50;;;20.80;99.90;;;20.67;56.93;101465.97;4910387;28;99356;-42
2022/10/28 08:06:11;;;;;;;1.27;0.60;;;20.80;99.90;;;20.63;57.03;101471.66;4913233;28;101215;-42
2022/10/28 08:08:38;;;;;;;1.00;0.50;;;20.80;99.90;;;20.62;57.12;101469.94;4907894;28;97146;-46
2022/10/28 08:11:23;;;;;;;0.90;0.60;;;20.80;99.90;;;20.69;57.25;101476.63;4906582;28;98079;-44
2022/10/28 08:13:50;;;;;;;1.47;0.80;;;20.80;99.90;;;20.63;57.19;101471.66;4905681;28;98235;-45
2022/10/28 08:16:16;;;;;;;0.70;0.70;;;20.80;99.90;;;20.64;57.21;101476.03;4909870;28;102157;-45
2022/10/28 08:18:44;;;;;;;0.70;0.63;;;20.80;99.90;;;20.70;56.95;101467.63;4905683;28;97305;-45
2022/10/28 08:21:11;;;;;;;1.70;0.77;;;20.80;99.90;;;20.69;56.98;101455.19;4897169;28;99986;-46
2022/10/28 08:23:37;;;;;;;0.60;0.40;;;20.80;99.90;;;20.68;57.04;101458.78;4882947;28;97500;-45
2022/10/28 08:26:04;;;;;;;1.17;0.43;;;20.80;99.90;;;20.68;56.88;101442.72;4887914;28;97546;-47
2022/10/28 08:28:30;;;;;;;0.50;0.43;;;20.80;99.90;;;20.63;57.21;101450.19;4880364;28;100103;-44
2022/10/28 08:31:01;;;;;;;1.67;0.90;;;20.80;99.90;;;20.61;57.29;101444.09;4906468;28;104859;-44
2022/10/28 08:33:27;;;;;;;1.23;0.70;;;20.80;99.90;;;20.63;57.21;101444.84;4903350;28;98118;-45
2022/10/28 08:35:53;;;;;;;0.53;0.40;;;20.80;99.90;;;20.69;56.91;101441.78;4913220;28;97458;-43
2022/10/28 08:38:19;;;;;;;1.07;0.73;;;20.80;99.90;;;20.68;57.05;101442.72;4910014;28;99386;-43
2022/10/28 08:41:31;;;;;;;0.47;0.43;;;20.80;99.90;;;20.72;57.46;101444.25;4902365;28;98625;-44
2022/10/28 08:44:33;;;;;;;1.43;0.47;;;20.80;99.90;;;20.74;56.84;101442.31;4902697;28;101232;-44
2022/10/28 08:47:22;;;;;;;1.77;0.77;;;20.90;99.90;;;20.73;57.09;101445.97;4907450;28;98654;-43
2022/10/28 08:49:55;;;;;;;1.10;0.80;;;20.90;99.90;;;20.69;56.99;101439.09;4882233;28;102033;-43
2022/10/28 08:52:42;;;;;;;2.40;0.60;;;20.80;99.90;;;20.71;57.09;101442.53;4906624;28;97732;-42
2022/10/28 08:55:19;;;;;;;0.87;0.50;;;20.80;99.90;;;20.73;56.87;101445.97;4909234;28;103437;-44
2022/10/28 08:58:01;;;;;;;1.63;1.23;;;20.90;99.90;;;20.79;56.80;101445.56;4903643;28;97015;-46
2022/10/28 09:00:31;;;;;;;0.87;0.73;;;20.90;99.90;;;20.73;56.87;101443.28;4904523;28;99089;-45
2022/10/28 09:03:27;;;;;;;1.27;0.57;;;20.90;99.90;;;20.74;56.87;101447.69;4908633;28;97748;-42
2022/10/28 09:06:01;;;;;;;1.23;0.60;;;20.90;99.90;;;20.73;56.87;101445.97;4909753;28;101491;-42
2022/10/28 09:08:36;;;;;;;0.57;0.40;;;20.90;99.90;;;20.76;56.90;101445.75;4908603;28;97202;-45
2022/10/28 09:11:42;;;;;;;0.97;0.70;;;20.90;99.90;;;20.76;56.70;101451.97;4908318;28;97443;-46
2022/10/28 09:14:28;;;;;;;1.43;0.50;;;20.90;99.90;;;20.68;57.00;101442.72;4908115;28;102117;-42
2022/10/28 09:17:00;;;;;;;0.77;0.50;;;20.80;99.90;;;20.66;56.93;101444.63;4906102;28;100394;-43
2022/10/28 09:19:34;;;;;;;0.80;0.67;;;20.80;99.90;;;20.66;57.00;101450.00;4906278;28;98298;-43
2022/10/28 09:22:21;;;;;;;0.83;0.53;;;20.80;99.90;;;20.69;56.98;101447.13;4916508;28;98723;-42
2022/10/28 09:25:02;;;;;;;1.60;0.50;;;20.80;99.90;;;20.72;56.98;101444.25;4911042;28;98497;-42
2022/10/28 09:27:45;;;;;;;0.80;0.80;;;20.90;99.90;;;20.74;56.79;101431.59;4906864;28;97809;-43
2022/10/28 09:30:39;;;;;;;0.87;0.57;;;20.90;99.90;;;20.64;56.99;101425.97;4914032;28;97315;-49
2022/10/28 09:33:34;;;;;;;0.80;0.40;;;20.80;99.90;;;20.70;57.05;101433.63;4897436;28;97448;-43
2022/10/28 09:36:03;;;;;;;1.23;0.60;;;20.80;99.90;;;20.70;56.62;101440.81;4887899;28;102717;-41
2022/10/28 09:38:33;;;;;;;0.50;0.40;;;20.80;99.90;;;20.71;56.88;101431.81;4882913;28;98536;-45
2022/10/28 09:41:05;;;;;;;1.07;0.73;;;20.90;99.90;;;20.71;57.03;101442.53;4902074;28;97232;-43
2022/10/28 09:43:34;;;;;;;1.80;0.90;;;20.80;99.90;;;20.73;57.72;101436.09;4890634;28;97504;-45
2022/10/28 09:46:11;;;;;;;1.70;0.60;;;20.90;99.90;;;20.77;56.92;101442.13;4890629;28;97585;-42
2022/10/28 09:48:42;;;;;;;2.60;1.00;;;20.90;99.90;;;20.75;57.58;101438.69;4888256;28;103448;-45
2022/10/28 09:51:34;;;;;;;0.60;0.50;;;20.90;99.90;;;20.70;56.94;101440.81;4886683;28;96897;-42
2022/10/28 09:54:00;;;;;;;3.60;0.60;;;20.90;99.90;;;20.76;58.24;101445.75;4917501;28;99203;-47
2022/10/28 09:56:29;;;;;;;1.87;1.00;;;20.90;99.90;;;20.69;57.26;101441.78;4909894;28;97424;-49
2022/10/28 09:58:58;;;;;;;2.83;0.47;;;20.90;99.90;;;20.69;57.10;101447.13;4916689;28;97218;-44
2022/10/28 10:01:24;;;;;;;1.03;0.70;;;20.90;99.90;;;20.70;57.05;101446.19;4912412;28;97348;-42
2022/10/28 10:03:51;;;;;;;1.67;0.77;;;20.90;99.90;;;20.82;58.86;101445.34;4913481;28;97430;-44
2022/10/28 10:06:37;;;;;;;2.07;0.90;;;20.90;99.90;;;20.84;56.73;101437.22;4912997;28;115497;-46
2022/10/28 10:09:04;;;;;;;1.07;0.43;;;21.00;99.90;;;20.82;57.42;101455.22;4901238;28;99829;-43
2022/10/28 10:11:44;;;;;;;3.03;0.60;;;21.00;99.90;;;20.79;56.79;101453.59;4900271;28;97421;-43
2022/10/28 10:14:17;;;;;;;0.53;0.50;;;21.00;99.90;;;20.81;56.62;101443.63;4917060;28;97113;-42
2022/10/28 10:16:52;;;;;;;0.80;0.40;;;21.00;99.90;;;20.81;57.70;101448.97;4900751;28;97051;-47
2022/10/28 10:19:18;;;;;;;3.00;0.90;;;21.00;99.90;;;20.81;56.82;101446.31;4903249;28;97431;-44
2022/10/28 10:21:48;;;;;;;1.80;1.13;;;21.00;99.90;;;20.86;56.54;101441.53;4903426;28;97501;-43
2022/10/28 10:24:44;;;;;;;1.47;0.70;;;21.00;99.90;;;20.84;56.38;101440.75;4905483;28;96885;-47
2022/10/28 10:27:09;;;;;;;1.33;0.60;;;21.00;99.90;;;20.78;56.90;101449.19;4922362;28;103355;-42
2022/10/28 10:29:36;;;;;;;1.17;0.60;;;21.00;99.90;;;20.79;56.93;101434.81;4906955;28;97222;-45